Time;durP1;ratioP1;P1;durP2;ratioP2;P2;SDS_P1;SDS_P2;PMS_P1;PMS_P2;Temp;Humidity;BMP_temperature;BMP_pressure;BME280_temperature;BME280_humidity;BME280_pressure;Samples;Min_cycle;Max_cycle;Signal;HPM_P1;HPM_P2
2022/01/26 00:00:07;;;;;;;55.40;36.87;;;;;;;4.33;72.02;102647.59;5069841;28;20040;-83
2022/01/26 00:08:05;;;;;;;58.83;36.60;;;;;;;4.84;71.86;102727.63;5070273;28;20140;-83
2022/01/26 00:10:33;;;;;;;48.87;34.47;;;;;;;4.54;71.78;102687.31;5051883;28;20540;-82
2022/01/26 00:13:00;;;;;;;56.80;36.20;;;;;;;4.69;71.99;102718.44;5052248;28;20563;-82
2022/01/26 00:15:30;;;;;;;46.70;34.03;;;;;;;4.71;71.79;102716.63;5052148;28;20052;-81
2022/01/26 00:17:58;;;;;;;52.43;33.77;;;;;;;4.66;71.83;102713.25;5051871;28;20508;-81
2022/01/26 00:20:36;;;;;;;50.33;34.43;;;;;;;3.77;71.37;102552.91;5069671;28;20135;-82
2022/01/26 00:26:37;;;;;;;49.27;34.50;;;;;;;4.63;72.47;102708.94;5033210;28;20543;-80
2022/01/26 00:42:55;;;;;;;;;;;;;;;4.56;72.85;102682.88;5074174;28;20087;-83
2022/01/26 00:45:27;;;;;;;49.13;33.83;;;;;;;4.64;72.23;102692.25;5057321;28;19921;-83
2022/01/26 00:47:53;;;;;;;50.23;35.23;;;;;;;4.62;71.83;102666.91;5055785;28;20159;-83
2022/01/26 00:50:20;;;;;;;55.57;37.07;;;;;;;4.19;72.52;102612.97;5055994;28;20084;-83
2022/01/26 00:52:53;;;;;;;56.00;37.30;;;;;;;4.52;71.94;102647.91;5055502;28;20053;-82
2022/01/26 00:55:20;;;;;;;60.13;37.83;;;;;;;4.81;71.10;102682.97;5055919;28;20139;-83
2022/01/26 00:57:48;;;;;;;55.17;35.73;;;;;;;4.46;71.68;102633.16;5055631;28;20139;-82
2022/01/26 01:00:21;;;;;;;59.00;37.87;;;;;;;4.60;71.91;102671.34;5073089;28;20048;-82
2022/01/26 01:02:49;;;;;;;55.00;36.73;;;;;;;4.53;71.73;102662.78;5055503;28;20095;-82
2022/01/26 01:05:23;;;;;;;61.63;36.23;;;;;;;4.54;72.62;102668.88;5073410;28;20401;-82
2022/01/26 01:07:56;;;;;;;59.27;37.50;;;;;;;4.52;72.62;102668.97;5055575;28;20512;-82
2022/01/26 01:10:24;;;;;;;52.87;34.83;;;;;;;4.37;72.89;102649.25;5073305;28;20409;-82
2022/01/26 01:12:56;;;;;;;57.97;37.77;;;;;;;4.05;72.83;102616.00;5072877;28;20053;-82
2022/01/26 01:15:26;;;;;;;60.42;37.13;;;;;;;4.33;73.54;102652.00;5073587;28;20044;-82
2022/01/26 01:18:02;;;;;;;54.10;38.03;;;;;;;4.42;72.98;102662.25;5073517;28;20044;-82
2022/01/26 01:23:33;;;;;;;55.80;38.00;;;;;;;4.47;72.95;102674.34;5072894;28;20397;-81
2022/01/26 01:31:17;;;;;;;58.60;36.93;;;;;;;4.28;73.21;102654.78;5073137;28;20044;-83
2022/01/26 01:33:46;;;;;;;61.97;38.67;;;;;;;4.35;72.88;102664.22;5055005;28;20143;-82
2022/01/26 01:36:13;;;;;;;61.37;39.03;;;;;;;4.02;72.74;102587.19;5054876;28;20134;-82
2022/01/26 01:38:42;;;;;;;58.23;38.03;;;;;;;4.56;72.56;102674.97;5055327;28;20052;-82
2022/01/26 01:41:09;;;;;;;56.53;38.50;;;;;;;4.27;72.93;102642.53;5055268;28;20048;-82
2022/01/26 01:43:37;;;;;;;58.50;37.00;;;;;;;4.49;72.56;102677.81;5055202;28;20063;-82
2022/01/26 01:46:05;;;;;;;57.63;37.03;;;;;;;4.24;72.64;102632.09;5072435;28;20132;-81
2022/01/26 01:48:33;;;;;;;59.73;39.37;;;;;;;4.25;73.57;102668.88;5054671;28;20414;-82
2022/01/26 01:51:05;;;;;;;59.50;38.47;;;;;;;4.04;73.95;102637.94;5054905;28;20135;-82
2022/01/26 01:53:37;;;;;;;60.70;39.20;;;;;;;4.25;74.43;102673.28;5058155;28;20045;-82
2022/01/26 01:56:05;;;;;;;57.53;38.97;;;;;;;4.24;73.81;102647.88;5055846;28;20060;-82
2022/01/26 01:58:32;;;;;;;56.20;37.20;;;;;;;4.17;73.74;102639.31;5054742;28;20436;-82
2022/01/26 02:00:58;;;;;;;58.50;38.20;;;;;;;4.14;73.57;102635.91;5071055;28;20045;-83
2022/01/26 02:03:25;;;;;;;54.90;36.23;;;;;;;4.26;73.48;102646.06;5051254;28;20589;-83
2022/01/26 02:05:52;;;;;;;51.93;35.67;;;;;;;4.08;73.63;102621.19;5068555;28;20562;-83
2022/01/26 02:08:19;;;;;;;59.50;36.83;;;;;;;4.16;73.54;102613.06;5068777;28;20052;-82
2022/01/26 02:10:46;;;;;;;61.53;36.60;;;;;;;4.32;73.29;102631.88;5047028;28;20049;-82
2022/01/26 02:13:22;;;;;;;58.67;38.33;;;;;;;3.57;73.06;102507.06;5030542;28;20561;-82
2022/01/26 02:16:01;;;;;;;60.23;39.03;;;;;;;4.39;73.01;102642.16;5029818;28;20059;-82
2022/01/26 02:18:52;;;;;;;55.80;38.27;;;;;;;4.30;73.46;102642.44;5030745;28;20044;-82
2022/01/26 03:02:07;;;;;;;57.87;36.70;;;;;;;3.73;74.60;102594.16;5047303;28;20053;-83
2022/01/26 03:09:43;;;;;;;59.03;35.30;;;;;;;3.76;74.58;102598.44;5047740;28;20056;-84
2022/01/26 03:12:12;;;;;;;55.77;35.13;;;;;;;3.91;74.59;102634.81;5029845;28;20053;-82
2022/01/26 03:14:50;;;;;;;55.93;36.60;;;;;;;3.92;74.27;102630.41;5029396;28;20446;-83
2022/01/26 03:19:53;;;;;;;65.13;37.07;;;;;;;2.50;74.92;102439.13;5047155;28;20059;-84
2022/01/26 03:38:08;;;;;;;63.53;36.23;;;;;;;3.73;74.41;102588.03;5047062;28;20048;-83
2022/01/26 03:40:38;;;;;;;51.73;33.13;;;;;;;3.63;74.02;102562.03;5046822;28;20088;-82
2022/01/26 03:43:05;;;;;;;61.87;36.17;;;;;;;3.39;74.63;102546.97;5029504;28;20049;-83
2022/01/26 03:45:32;;;;;;;58.43;34.10;;;;;;;3.66;74.83;102586.50;5045940;28;20453;-83
2022/01/26 03:47:58;;;;;;;60.33;33.87;;;;;;;3.56;74.99;102583.25;5029039;28;20562;-84
2022/01/26 03:50:26;;;;;;;56.83;34.40;;;;;;;3.66;74.41;102583.88;5029353;28;20047;-82
2022/01/26 03:52:53;;;;;;;61.37;34.30;;;;;;;3.48;74.72;102570.34;5028819;28;20059;-82
2022/01/26 03:55:19;;;;;;;54.40;32.60;;;;;;;3.29;74.95;102540.25;5046432;28;20053;-83
2022/01/26 03:57:46;;;;;;;63.27;35.57;;;;;;;3.41;75.07;102551.28;5029110;28;20132;-81
2022/01/26 04:00:13;;;;;;;53.23;31.50;;;;;;;3.29;75.38;102540.25;5029948;28;20048;-82
2022/01/26 04:02:40;;;;;;;53.73;30.47;;;;;;;3.38;75.42;102575.00;5058324;28;20057;-83
2022/01/26 04:05:11;;;;;;;49.37;29.30;;;;;;;3.11;75.83;102531.97;5042033;28;20051;-82
2022/01/26 04:07:39;;;;;;;47.77;28.47;;;;;;;2.95;75.75;102504.41;5045962;28;20057;-84
2022/01/26 04:10:26;;;;;;;46.90;28.57;;;;;;;3.13;75.42;102531.91;5035893;28;20143;-82
2022/01/26 04:12:52;;;;;;;45.80;28.70;;;;;;;3.03;75.82;102502.44;5046598;28;20140;-82
2022/01/26 04:15:29;;;;;;;48.27;28.37;;;;;;;3.16;75.62;102524.84;5028897;28;20055;-82
2022/01/26 04:17:57;;;;;;;52.93;30.23;;;;;;;3.06;75.92;102498.88;5029047;28;20080;-83
2022/01/26 04:20:27;;;;;;;43.63;27.67;;;;;;;2.94;75.50;102479.09;5028866;28;20504;-83
2022/01/26 04:23:10;;;;;;;44.40;28.80;;;;;;;3.17;75.67;102515.19;5046285;28;20139;-82
2022/01/26 04:25:38;;;;;;;;;;;;;;;3.39;75.15;102553.06;5029107;28;20127;-81
2022/01/26 04:28:09;;;;;;;47.23;27.57;;;;;;;3.35;75.78;102550.56;5044960;28;19920;-82
2022/01/26 04:30:35;;;;;;;46.43;29.47;;;;;;;3.48;75.19;102562.47;5045796;28;20053;-82
2022/01/26 04:33:04;;;;;;;43.23;29.17;;;;;;;3.40;74.64;102553.97;5028638;28;20628;-82
2022/01/26 04:35:32;;;;;;;52.37;30.40;;;;;;;3.38;74.37;102555.75;5046288;28;20078;-82
2022/01/26 04:40:33;;;;;;;52.70;30.20;;;;;;;3.32;74.39;102555.91;5046454;28;20564;-81
2022/01/26 04:43:05;;;;;;;54.40;30.20;;;;;;;3.34;74.89;102569.88;5028368;28;20049;-82
2022/01/26 04:45:32;;;;;;;56.83;30.93;;;;;;;3.34;74.49;102567.25;5030252;28;20055;-82
2022/01/26 04:47:58;;;;;;;51.57;30.20;;;;;;;3.12;74.72;102531.06;5028310;28;20136;-83
2022/01/26 04:50:25;;;;;;;53.47;31.10;;;;;;;3.12;74.48;102533.69;5029584;28;20068;-82
2022/01/26 04:52:52;;;;;;;47.37;29.30;;;;;;;3.26;74.47;102566.59;5028223;28;20581;-82
2022/01/26 04:55:18;;;;;;;52.73;31.40;;;;;;;3.13;74.46;102553.81;5028240;28;20078;-83
2022/01/26 04:57:45;;;;;;;52.23;28.67;;;;;;;3.15;74.70;102559.00;5028714;28;20142;-82
2022/01/26 05:00:15;;;;;;;52.73;30.17;;;;;;;3.15;74.56;102549.34;5028946;28;20041;-82
2022/01/26 05:02:42;;;;;;;55.60;30.70;;;;;;;3.24;74.43;102568.41;5028219;28;20053;-83
2022/01/26 05:05:09;;;;;;;50.23;30.63;;;;;;;3.20;74.50;102563.25;5045039;28;20045;-83
2022/01/26 05:07:35;;;;;;;49.17;31.00;;;;;;;3.23;74.40;102578.03;5027994;28;20044;-84
2022/01/26 05:10:03;;;;;;;50.20;29.87;;;;;;;3.02;74.91;102542.72;5055872;28;20083;-83
2022/01/26 05:12:30;;;;;;;45.73;29.40;;;;;;;3.14;74.52;102566.00;5051602;28;20049;-83
2022/01/26 05:14:57;;;;;;;43.73;27.10;;;;;;;2.92;74.54;102533.38;5051398;28;20143;-82
2022/01/26 05:17:24;;;;;;;49.77;29.83;;;;;;;3.17;75.24;102586.91;5069296;28;20041;-83
2022/01/26 05:19:56;;;;;;;44.03;26.73;;;;;;;3.03;74.98;102560.16;5069201;28;20052;-81
2022/01/26 05:22:22;;;;;;;38.40;25.20;;;;;;;2.87;74.92;102537.88;5051347;28;20586;-82
2022/01/26 05:24:49;;;;;;;41.90;25.43;;;;;;;3.13;74.71;102587.91;5051667;28;20478;-83
2022/01/26 05:27:15;;;;;;;44.17;25.50;;;;;;;3.06;74.74;102572.34;5051348;28;20173;-83
2022/01/26 05:29:42;;;;;;;45.67;26.73;;;;;;;2.99;74.97;102575.16;5051084;28;20413;-82
2022/01/26 05:32:09;;;;;;;42.50;26.17;;;;;;;3.00;75.39;102578.63;5051383;28;20421;-83
2022/01/26 05:34:35;;;;;;;40.40;25.93;;;;;;;2.88;75.27;102560.56;5051548;28;20117;-82
2022/01/26 05:37:02;;;;;;;37.67;24.67;;;;;;;2.88;75.10;102558.81;5051092;28;20066;-82
2022/01/26 05:39:31;;;;;;;41.80;27.10;;;;;;;3.11;74.43;102586.25;5050972;28;20391;-82
2022/01/26 05:42:03;;;;;;;47.97;25.57;;;;;;;2.92;74.50;102556.97;5051126;28;20064;-82
2022/01/26 05:44:29;;;;;;;38.63;25.38;;;;;;;2.58;74.74;102510.63;5051584;28;20068;-81
2022/01/26 05:46:56;;;;;;;42.73;25.93;;;;;;;2.87;74.95;102590.34;5051017;28;20494;-81
2022/01/26 05:49:25;;;;;;;50.73;26.77;;;;;;;2.84;75.38;102585.16;5051133;28;20572;-83
2022/01/26 05:51:52;;;;;;;42.23;26.70;;;;;;;2.70;75.60;102562.75;5050921;28;20048;-81
2022/01/26 05:54:19;;;;;;;45.43;27.03;;;;;;;1.87;75.98;102423.22;5069009;28;20048;-82
2022/01/26 05:56:47;;;;;;;44.40;27.80;;;;;;;2.69;76.49;102561.03;5068779;28;20135;-82
2022/01/26 05:59:17;;;;;;;42.73;26.13;;;;;;;2.20;75.55;102478.31;5050769;28;20560;-81
2022/01/26 06:01:43;;;;;;;45.43;26.90;;;;;;;2.80;75.99;102580.91;5050793;28;20061;-82
2022/01/26 06:04:10;;;;;;;43.73;26.37;;;;;;;2.76;76.50;102567.84;5048581;28;20370;-82
2022/01/26 06:06:36;;;;;;;48.07;28.60;;;;;;;2.85;76.05;102571.16;5067765;28;20447;-84
2022/01/26 06:09:08;;;;;;;43.47;27.67;;;;;;;2.84;76.23;102566.78;5049880;28;20049;-81
2022/01/26 06:11:34;;;;;;;39.10;25.80;;;;;;;2.72;76.06;102541.75;5050858;28;20338;-81
2022/01/26 06:14:01;;;;;;;41.97;26.10;;;;;;;2.76;76.13;102559.13;5051415;28;20148;-82
2022/01/26 06:16:28;;;;;;;43.23;26.47;;;;;;;2.90;76.19;102574.53;5049220;28;20132;-82
2022/01/26 06:18:55;;;;;;;47.07;28.47;;;;;;;2.52;76.02;102519.47;5049643;28;20091;-82
2022/01/26 06:21:21;;;;;;;42.90;27.17;;;;;;;2.94;76.69;102573.56;5049136;28;20453;-83
2022/01/26 06:23:48;;;;;;;46.37;27.63;;;;;;;2.83;76.12;102546.72;5067093;28;20498;-83
2022/01/26 06:26:15;;;;;;;44.33;28.83;;;;;;;2.90;75.86;102553.53;5049116;28;20452;-83
2022/01/26 06:28:41;;;;;;;46.13;28.50;;;;;;;2.42;75.66;102452.44;5049442;28;20502;-83
2022/01/26 06:31:14;;;;;;;42.63;26.00;;;;;;;3.15;75.45;102572.13;5049381;28;20252;-82
2022/01/26 06:33:43;;;;;;;44.00;27.73;;;;;;;1.89;75.71;102366.44;5049105;28;20044;-83
2022/01/26 06:36:12;;;;;;;45.63;27.63;;;;;;;2.97;75.28;102541.97;5049299;28;20140;-85
2022/01/26 06:38:41;;;;;;;51.17;29.17;;;;;;;3.20;74.71;102576.38;5049461;28;20040;-83
2022/01/26 06:41:08;;;;;;;43.63;28.83;;;;;;;3.00;75.67;102552.38;5049117;28;20052;-83
2022/01/26 06:43:44;;;;;;;46.73;29.77;;;;;;;3.13;75.36;102560.78;5049142;28;20052;-82
2022/01/26 06:46:11;;;;;;;47.00;29.30;;;;;;;3.34;74.95;102575.97;5066161;28;20057;-84
2022/01/26 06:49:02;;;;;;;50.77;30.07;;;;;;;3.27;75.24;102569.16;5048731;28;20052;-84
2022/01/26 06:51:24;;;;;;;50.93;29.50;;;;;;;2.58;75.49;102441.59;5065666;28;20207;-83
2022/01/26 06:53:51;;;;;;;56.83;29.77;;;;;;;3.27;75.28;102548.16;5048354;28;20048;-81
2022/01/26 06:56:17;;;;;;;51.83;30.67;;;;;;;3.17;75.23;102541.44;5048293;28;20049;-81
2022/01/26 06:58:44;;;;;;;59.97;31.13;;;;;;;3.35;75.43;102571.56;5066663;28;20484;-83
2022/01/26 07:01:10;;;;;;;57.70;32.57;;;;;;;3.22;75.40;102552.69;5048704;28;20130;-83
2022/01/26 07:03:37;;;;;;;54.43;33.23;;;;;;;3.42;75.68;102591.50;5048574;28;20072;-82
2022/01/26 07:06:04;;;;;;;59.13;32.50;;;;;;;3.21;75.52;102559.69;5048570;28;20142;-84
2022/01/26 07:08:32;;;;;;;53.20;33.03;;;;;;;3.39;75.11;102591.59;5048268;28;20121;-84
2022/01/26 07:10:59;;;;;;;58.07;31.90;;;;;;;3.44;75.38;102597.59;5027291;28;20119;-82
2022/01/26 07:13:27;;;;;;;52.87;29.50;;;;;;;3.19;76.01;102565.88;5042028;28;20056;-83
2022/01/26 07:21:27;;;;;;;50.97;30.07;;;;;;;3.35;75.37;102595.19;5048109;28;20063;-83
2022/01/26 07:23:55;;;;;;;44.87;27.73;;;;;;;3.25;75.26;102560.47;5048931;28;20055;-84
2022/01/26 07:26:27;;;;;;;47.80;29.53;;;;;;;3.35;75.50;102587.31;5011006;28;20057;-82
2022/01/26 07:28:55;;;;;;;49.90;30.02;;;;;;;3.15;74.74;102548.50;5013480;28;20354;-83
2022/01/26 07:31:22;;;;;;;45.67;28.30;;;;;;;3.53;74.80;102613.09;5006879;28;20050;-83
2022/01/26 07:33:55;;;;;;;50.97;29.93;;;;;;;3.56;73.91;102602.50;5007000;28;20485;-82
2022/01/26 07:36:22;;;;;;;;;;;;;;;3.56;74.00;102617.41;5023959;28;20049;-82
2022/01/26 07:38:53;;;;;;;50.23;30.50;;;;;;;3.49;74.27;102600.09;5008754;28;20060;-82
2022/01/26 07:41:20;;;;;;;52.17;30.55;;;;;;;3.56;74.42;102599.88;5007202;28;20426;-81
2022/01/26 07:43:48;;;;;;;56.03;31.47;;;;;;;3.58;75.01;102615.59;5026369;28;20136;-82
2022/01/26 07:46:22;;;;;;;61.57;31.73;;;;;;;3.57;74.54;102612.13;5026605;28;20573;-81
2022/01/26 07:48:54;;;;;;;58.43;33.67;;;;;;;3.56;75.03;102615.63;5013824;28;20484;-86
2022/01/26 07:51:22;;;;;;;61.07;31.93;;;;;;;3.64;74.79;102597.91;5011574;28;20052;-82
2022/01/26 07:53:50;;;;;;;58.20;34.07;;;;;;;3.64;74.77;102618.03;5049698;28;20048;-83
2022/01/26 07:56:17;;;;;;;55.67;32.40;;;;;;;3.42;74.44;102573.13;5048329;28;20041;-83
2022/01/26 07:58:45;;;;;;;50.73;30.13;;;;;;;3.70;74.67;102615.25;5047888;28;20052;-83
2022/01/26 08:01:12;;;;;;;61.33;31.30;;;;;;;3.36;73.90;102547.06;5030963;28;20080;-83
2022/01/26 08:03:39;;;;;;;53.13;31.37;;;;;;;3.68;74.28;102608.31;5047861;28;20056;-83
2022/01/26 08:06:07;;;;;;;47.63;29.97;;;;;;;3.69;74.45;102603.03;5040156;28;20308;-82
2022/01/26 08:08:34;;;;;;;50.90;30.40;;;;;;;3.01;74.13;102493.78;5034843;28;20073;-83
2022/01/26 08:11:00;;;;;;;51.80;29.87;;;;;;;3.64;73.48;102542.75;5045629;28;20040;-85
2022/01/26 08:13:27;;;;;;;49.83;30.17;;;;;;;3.89;73.31;102599.84;5048019;28;20076;-83
2022/01/26 08:15:57;;;;;;;57.77;32.83;;;;;;;3.00;74.04;102487.63;5074367;28;20570;-83
2022/01/26 08:18:25;;;;;;;51.67;30.57;;;;;;;3.55;73.60;102557.91;5068086;28;20079;-84
2022/01/26 08:20:52;;;;;;;39.47;26.17;;;;;;;3.98;73.07;102617.09;5067906;28;20070;-81
2022/01/26 08:23:21;;;;;;;36.30;24.90;;;;;;;3.48;72.28;102530.09;5067738;28;20134;-84
2022/01/26 08:25:51;;;;;;;44.97;25.07;;;;;;;3.94;72.64;102603.19;5053565;28;20053;-84
2022/01/26 08:28:27;;;;;;;39.13;24.63;;;;;;;3.93;72.30;102606.75;5054764;28;20059;-82
2022/01/26 08:30:56;;;;;;;40.67;24.97;;;;;;;3.76;72.62;102593.19;5067544;28;20121;-84
2022/01/26 08:33:23;;;;;;;40.00;26.00;;;;;;;3.14;72.20;102474.16;5067503;28;20498;-84
2022/01/26 08:35:50;;;;;;;34.60;25.47;;;;;;;3.98;72.12;102602.22;5068093;28;20183;-80
2022/01/26 08:38:16;;;;;;;40.23;24.70;;;;;;;3.73;72.55;102572.28;5085717;28;20132;-82
2022/01/26 08:40:45;;;;;;;38.17;25.50;;;;;;;3.10;72.21;102441.00;5067213;28;20328;-83
2022/01/26 08:43:12;;;;;;;39.10;26.73;;;;;;;3.93;71.55;102580.47;5060576;28;20056;-81
2022/01/26 08:45:39;;;;;;;39.50;26.10;;;;;;;4.21;71.54;102617.28;5047733;28;20571;-83
2022/01/26 08:48:08;;;;;;;39.33;25.40;;;;;;;4.21;70.99;102603.28;5051686;28;20051;-86
2022/01/26 08:50:35;;;;;;;37.97;25.30;;;;;;;4.13;71.72;102581.63;5050792;28;20052;-82
2022/01/26 08:53:02;;;;;;;37.47;25.50;;;;;;;3.52;71.39;102464.31;5051383;28;20102;-81
2022/01/26 08:55:32;;;;;;;34.07;25.07;;;;;;;3.25;70.97;102420.47;5051830;28;20051;-82
2022/01/26 08:57:58;;;;;;;33.63;24.17;;;;;;;3.66;70.99;102461.25;5051571;28;20053;-83
2022/01/26 09:00:25;;;;;;;35.30;25.10;;;;;;;4.39;70.86;102562.41;5050828;28;20072;-83
2022/01/26 09:02:53;;;;;;;35.83;24.43;;;;;;;4.29;70.44;102536.38;5069070;28;20053;-84
2022/01/26 09:05:21;;;;;;;38.07;24.17;;;;;;;4.55;69.77;102575.94;5051384;28;20056;-84
2022/01/26 09:07:49;;;;;;;34.30;23.73;;;;;;;4.71;69.83;102591.19;5051008;28;20047;-82
2022/01/26 09:10:16;;;;;;;32.20;23.27;;;;;;;4.70;69.86;102588.59;5050899;28;20051;-80
2022/01/26 09:12:44;;;;;;;31.43;24.03;;;;;;;4.25;69.96;102518.16;5049417;28;20537;-83
2022/01/26 09:15:12;;;;;;;36.20;25.67;;;;;;;3.89;69.49;102449.22;5049973;28;20071;-83
2022/01/26 09:17:40;;;;;;;37.53;25.80;;;;;;;3.98;69.63;102454.16;5080832;28;20138;-84
2022/01/26 09:20:07;;;;;;;37.83;24.83;;;;;;;4.98;69.45;102603.47;5054891;28;20076;-83
2022/01/26 09:22:34;;;;;;;37.70;24.90;;;;;;;4.80;69.47;102568.94;5051230;28;20079;-81
2022/01/26 09:25:01;;;;;;;37.03;25.80;;;;;;;4.95;69.29;102590.41;5050698;28;20064;-81
2022/01/26 09:27:28;;;;;;;38.17;26.03;;;;;;;4.75;69.42;102557.72;5068262;28;20040;-83
2022/01/26 09:29:55;;;;;;;37.17;25.20;;;;;;;5.11;68.99;102607.41;5050356;28;20136;-84
2022/01/26 09:32:22;;;;;;;35.53;25.43;;;;;;;5.17;68.04;102601.94;5050523;28;20052;-83
2022/01/26 09:34:50;;;;;;;35.50;25.27;;;;;;;5.16;68.75;102617.78;5068425;28;20098;-82
2022/01/26 09:37:17;;;;;;;36.83;24.80;;;;;;;5.16;68.29;102592.31;5049907;28;20413;-83
2022/01/26 09:39:46;;;;;;;30.93;24.83;;;;;;;5.20;67.93;102591.28;5050536;28;20061;-82
2022/01/26 09:42:13;;;;;;;35.37;23.70;;;;;;;5.26;68.02;102591.06;5055733;28;20083;-82
2022/01/26 09:44:41;;;;;;;33.17;23.60;;;;;;;5.45;67.28;102606.25;5048608;28;20414;-80
2022/01/26 09:47:09;;;;;;;31.90;23.07;;;;;;;5.54;67.43;102592.75;5057547;28;20138;-81
2022/01/26 09:49:36;;;;;;;41.77;24.60;;;;;;;5.62;67.56;102600.38;5053900;28;20299;-82
2022/01/26 09:52:13;;;;;;;31.20;22.57;;;;;;;5.50;67.50;102572.69;5070013;28;20134;-81
2022/01/26 09:54:42;;;;;;;30.03;23.20;;;;;;;5.55;67.67;102573.38;5070626;28;20047;-83
2022/01/26 09:57:29;;;;;;;36.97;24.87;;;;;;;5.04;67.10;102471.63;5087918;28;20417;-82
2022/01/26 09:59:58;;;;;;;34.03;23.80;;;;;;;5.84;66.86;102574.94;5051495;28;20569;-83
2022/01/26 10:02:32;;;;;;;36.33;24.97;;;;;;;6.12;66.37;102601.16;5028376;28;20099;-83
2022/01/26 10:05:08;;;;;;;34.37;24.87;;;;;;;6.05;66.18;102549.56;5045870;28;20387;-84
2022/01/26 10:15:42;;;;;;;34.05;24.88;;;;;;;6.53;65.16;102574.94;5045828;28;20567;-82
2022/01/26 10:18:15;;;;;;;39.65;24.73;;;;;;;6.12;65.20;102500.94;5038663;28;20076;-84
2022/01/26 10:20:48;;;;;;;35.08;25.30;;;;;;;6.57;65.09;102573.88;5048721;28;20052;-82
2022/01/26 10:23:28;;;;;;;33.55;24.55;;;;;;;6.42;64.79;102548.97;5049254;28;20048;-81
2022/01/26 10:26:05;;;;;;;42.40;27.90;;;;;;;6.57;65.14;102573.88;5066930;28;20086;-83
2022/01/26 10:28:45;;;;;;;40.20;27.00;;;;;;;6.64;65.32;102574.47;5049055;28;20127;-81
2022/01/26 10:31:31;;;;;;;42.63;27.65;;;;;;;6.71;64.86;102572.47;5049046;28;20150;-80
2022/01/26 10:34:17;;;;;;;42.20;26.05;;;;;;;6.78;64.96;102564.22;5051618;28;20140;-83
2022/01/26 10:37:00;;;;;;;37.95;26.27;;;;;;;6.39;65.46;102498.13;5054017;28;20063;-82
2022/01/26 10:39:55;;;;;;;36.05;26.15;;;;;;;6.78;65.83;102555.44;5075755;28;20041;-83
2022/01/26 10:42:20;;;;;;;42.40;27.42;;;;;;;6.92;65.58;102553.09;5056523;28;20230;-83
2022/01/26 10:47:26;;;;;;;40.72;27.70;;;;;;;6.81;64.75;102507.78;5059442;28;20396;-82
2022/01/26 10:50:08;;;;;;;38.30;27.85;;;;;;;7.00;65.25;102548.31;5048534;28;20134;-82
2022/01/26 10:52:37;;;;;;;39.58;28.48;;;;;;;6.96;65.49;102520.31;5029184;28;20274;-83
2022/01/26 10:55:07;;;;;;;42.33;28.65;;;;;;;7.24;65.41;102543.75;5046746;28;20082;-81
2022/01/26 10:57:35;;;;;;;40.38;28.90;;;;;;;7.12;64.57;102511.75;5028799;28;20128;-82
2022/01/26 11:00:06;;;;;;;37.95;28.27;;;;;;;7.22;64.87;102531.53;5028779;28;20056;-82
2022/01/26 11:02:34;;;;;;;37.15;26.75;;;;;;;7.39;65.46;102529.00;5025935;28;20509;-82
2022/01/26 11:05:01;;;;;;;34.58;27.60;;;;;;;7.49;64.68;102524.16;5025457;28;20056;-83
2022/01/26 11:07:37;;;;;;;42.65;28.23;;;;;;;7.50;64.95;102507.41;5028046;28;20053;-81
2022/01/26 11:10:06;;;;;;;35.20;27.45;;;;;;;7.68;64.67;102521.53;5045205;28;20131;-82
2022/01/26 11:12:37;;;;;;;38.15;28.27;;;;;;;7.74;64.52;102517.75;5027957;28;20147;-84
2022/01/26 11:15:11;;;;;;;45.00;28.25;;;;;;;7.80;64.30;102505.13;5028586;28;20056;-83
2022/01/26 11:17:43;;;;;;;41.70;29.73;;;;;;;7.06;63.96;102373.78;5028281;28;20441;-82
2022/01/26 11:20:30;;;;;;;39.97;27.95;;;;;;;7.96;63.95;102504.38;5028271;28;20072;-82
2022/01/26 11:22:59;;;;;;;37.42;26.83;;;;;;;8.04;63.81;102502.25;5027926;28;20049;-83
2022/01/26 11:25:28;;;;;;;44.10;28.48;;;;;;;8.02;63.88;102502.31;5027990;28;20573;-82
2022/01/26 11:27:56;;;;;;;37.95;27.00;;;;;;;8.04;63.68;102496.94;5027944;28;20056;-83
2022/01/26 11:30:30;;;;;;;42.25;27.65;;;;;;;8.04;64.15;102507.53;5027730;28;20059;-84
2022/01/26 11:33:01;;;;;;;40.58;28.92;;;;;;;7.62;64.15;102419.59;5045523;28;20053;-82
2022/01/26 11:35:36;;;;;;;41.40;28.75;;;;;;;8.08;63.81;102493.22;5027692;28;20088;-82
2022/01/26 11:47:18;;;;;;;43.53;26.98;;;;;;;8.09;64.00;102471.13;5045389;28;20155;-83
2022/01/26 11:49:46;;;;;;;41.72;29.15;;;;;;;7.79;64.22;102426.72;5045540;28;20398;-83
2022/01/26 11:52:21;;;;;;;40.08;28.50;;;;;;;8.12;64.17;102473.63;5045487;28;20052;-83
2022/01/26 11:54:52;;;;;;;41.70;29.58;;;;;;;8.10;64.71;102471.03;5027862;28;20045;-83
2022/01/26 11:57:22;;;;;;;43.70;29.92;;;;;;;8.21;64.24;102465.25;5027757;28;20051;-84
2022/01/26 12:00:03;;;;;;;36.35;25.85;;;;;;;8.14;64.14;102442.66;5045340;28;20188;-82
2022/01/26 12:02:57;;;;;;;33.20;23.73;;;;;;;8.18;64.11;102457.47;5026337;28;20056;-81
2022/01/26 12:05:25;;;;;;;47.45;28.48;;;;;;;8.04;64.68;102452.00;5037112;28;20466;-82
2022/01/26 12:08:00;;;;;;;38.90;27.48;;;;;;;7.85;64.61;102418.50;5027209;28;20123;-81
2022/01/26 12:10:29;;;;;;;37.67;26.77;;;;;;;8.14;65.56;102463.81;5033988;28;20132;-81
2022/01/26 12:13:16;;;;;;;36.38;26.65;;;;;;;7.48;65.30;102351.53;5027637;28;20045;-83
2022/01/26 12:32:25;;;;;;;32.83;23.08;;;;;;;7.90;65.28;102405.91;5049146;28;20540;-82
2022/01/26 12:35:09;;;;;;;27.38;20.65;;;;;;;7.87;65.20;102398.13;5031565;28;20053;-83
2022/01/26 12:43:15;;;;;;;32.20;21.92;;;;;;;8.12;65.79;102410.13;5049016;28;20063;-83
2022/01/26 12:45:57;;;;;;;33.05;22.98;;;;;;;7.78;66.32;102366.84;5033956;28;20078;-84
2022/01/26 12:48:25;;;;;;;33.65;21.58;;;;;;;8.00;66.25;102384.28;5031585;28;20041;-83
2022/01/26 12:50:53;;;;;;;25.75;19.52;;;;;;;8.31;66.02;102410.91;5031935;28;20514;-82
2022/01/26 12:53:27;;;;;;;31.80;21.52;;;;;;;8.27;65.83;102401.41;5032011;28;20061;-82
2022/01/26 12:56:00;;;;;;;28.88;21.30;;;;;;;8.34;65.13;102397.53;5031927;28;20195;-82
2022/01/26 12:58:30;;;;;;;30.77;20.55;;;;;;;7.94;65.87;102340.50;5048132;28;20503;-82
2022/01/26 13:01:17;;;;;;;33.67;22.55;;;;;;;8.18;65.91;102396.59;5031639;28;20130;-83
2022/01/26 13:03:47;;;;;;;27.77;21.70;;;;;;;7.99;65.98;102353.50;5031742;28;20048;-83
2022/01/26 13:06:23;;;;;;;30.52;22.48;;;;;;;8.14;66.11;102385.31;5031856;28;20076;-83
2022/01/26 13:08:53;;;;;;;29.02;21.10;;;;;;;8.15;66.26;102380.88;5031094;28;20077;-83
2022/01/26 13:11:26;;;;;;;32.13;22.50;;;;;;;8.21;66.60;102385.88;5031188;28;20053;-84
2022/01/26 13:14:11;;;;;;;26.83;19.92;;;;;;;7.91;65.96;102320.34;5049285;28;20059;-83
2022/01/26 13:16:44;;;;;;;29.58;20.90;;;;;;;7.88;66.13;102328.41;5031693;28;20049;-82
2022/01/26 13:19:33;;;;;;;29.17;19.90;;;;;;;8.29;65.87;102394.25;5031756;28;20521;-84
2022/01/26 13:30:58;;;;;;;28.75;19.80;;;;;;;8.21;66.13;102367.34;5049340;28;20045;-83
2022/01/26 13:39:15;;;;;;;27.85;20.05;;;;;;;8.08;65.98;102345.06;5049121;28;20136;-83
2022/01/26 13:47:13;;;;;;;35.53;22.05;;;;;;;7.29;65.89;102200.13;5049438;28;20107;-84
2022/01/26 13:57:50;;;;;;;30.40;20.17;;;;;;;8.27;66.08;102343.19;5052941;28;20072;-85
2022/01/26 14:00:20;;;;;;;27.52;20.10;;;;;;;8.10;66.75;102337.91;5033015;28;20049;-84
2022/01/26 14:02:52;;;;;;;30.20;20.08;;;;;;;8.25;66.88;102360.97;5042285;28;20056;-82
2022/01/26 14:05:18;;;;;;;28.65;20.55;;;;;;;8.41;66.52;102376.09;5068135;28;20052;-83
2022/01/26 14:07:45;;;;;;;27.65;20.25;;;;;;;8.13;66.51;102327.19;5050129;28;20050;-83
2022/01/26 14:10:12;;;;;;;27.98;20.45;;;;;;;8.18;66.23;102341.06;5068165;28;20143;-84
2022/01/26 14:12:45;;;;;;;28.55;21.38;;;;;;;7.73;66.54;102275.47;5051241;28;20165;-84
2022/01/26 14:15:12;;;;;;;30.33;21.02;;;;;;;8.23;66.47;102346.97;5054306;28;20052;-83
2022/01/26 14:20:29;;;;;;;29.60;20.58;;;;;;;8.06;66.40;102323.16;5089230;28;20055;-83
2022/01/26 14:25:30;;;;;;;26.83;18.77;;;;;;;8.04;66.84;102333.81;5069385;28;20056;-84
2022/01/26 14:28:06;;;;;;;29.15;20.90;;;;;;;8.42;66.61;102388.38;5051223;28;20051;-83